sensor_id;sensor_type;location;lat;lon;timestamp;pressure;altitude;pressure_sealevel;temperature;humidity
7836;BME280;3963;42.658;23.298;2023-02-18T00:01:31;58468.44;;;3.14;94.92
7836;BME280;3963;42.658;23.298;2023-02-18T00:03:58;58456.53;;;3.25;93.77
7836;BME280;3963;42.658;23.298;2023-02-18T00:06:27;58464.03;;;3.20;94.35
7836;BME280;3963;42.658;23.298;2023-02-18T00:08:55;58477.97;;;3.23;93.61
7836;BME280;3963;42.658;23.298;2023-02-18T00:11:29;58414.59;;;3.09;94.31
7836;BME280;3963;42.658;23.298;2023-02-18T00:13:58;58462.38;;;3.16;94.37
7836;BME280;3963;42.658;23.298;2023-02-18T00:16:26;58411.28;;;2.87;95.65
7836;BME280;3963;42.658;23.298;2023-02-18T00:18:54;58428.28;;;2.91;96.03
7836;BME280;3963;42.658;23.298;2023-02-18T00:21:21;58437.72;;;2.97;96.05
7836;BME280;3963;42.658;23.298;2023-02-18T00:23:48;58419.13;;;2.92;95.22
7836;BME280;3963;42.658;23.298;2023-02-18T00:26:16;58443.88;;;2.98;94.78
7836;BME280;3963;42.658;23.298;2023-02-18T00:28:45;58392.00;;;2.61;96.52
7836;BME280;3963;42.658;23.298;2023-02-18T00:31:16;58410.06;;;2.81;96.73
7836;BME280;3963;42.658;23.298;2023-02-18T00:33:43;58380.81;;;2.77;97.44
7836;BME280;3963;42.658;23.298;2023-02-18T00:36:11;58380.53;;;2.84;96.55
7836;BME280;3963;42.658;23.298;2023-02-18T00:38:39;58386.72;;;2.70;96.37
7836;BME280;3963;42.658;23.298;2023-02-18T00:41:09;58386.38;;;2.60;98.59
7836;BME280;3963;42.658;23.298;2023-02-18T00:43:35;58408.66;;;2.69;98.31
7836;BME280;3963;42.658;23.298;2023-02-18T00:46:04;58428.13;;;2.71;97.45
7836;BME280;3963;42.658;23.298;2023-02-18T00:48:32;58395.88;;;2.69;98.31
7836;BME280;3963;42.658;23.298;2023-02-18T00:50:59;58409.34;;;2.75;97.91
7836;BME280;3963;42.658;23.298;2023-02-18T00:53:26;58358.28;;;2.60;98.58
7836;BME280;3963;42.658;23.298;2023-02-18T00:55:52;58345.88;;;2.56;98.17
7836;BME280;3963;42.658;23.298;2023-02-18T00:58:19;58337.88;;;2.46;99.06
7836;BME280;3963;42.658;23.298;2023-02-18T01:00:46;58323.88;;;2.40;99.52
7836;BME280;3963;42.658;23.298;2023-02-18T01:03:15;58374.41;;;2.39;99.94
7836;BME280;3963;42.658;23.298;2023-02-18T01:05:43;58340.19;;;2.38;99.55
7836;BME280;3963;42.658;23.298;2023-02-18T01:08:11;58337.78;;;2.43;99.65
7836;BME280;3963;42.658;23.298;2023-02-18T01:10:41;58366.50;;;2.46;100.00
7836;BME280;3963;42.658;23.298;2023-02-18T01:13:08;58356.81;;;2.47;99.95
7836;BME280;3963;42.658;23.298;2023-02-18T01:15:36;58380.94;;;2.50;100.00
7836;BME280;3963;42.658;23.298;2023-02-18T01:18:03;58355.75;;;2.46;100.00
7836;BME280;3963;42.658;23.298;2023-02-18T01:20:34;58341.94;;;2.45;100.00
7836;BME280;3963;42.658;23.298;2023-02-18T01:23:01;58368.78;;;2.53;100.00
7836;BME280;3963;42.658;23.298;2023-02-18T01:25:29;58369.50;;;2.44;99.46
7836;BME280;3963;42.658;23.298;2023-02-18T01:27:56;58329.50;;;2.40;98.86
7836;BME280;3963;42.658;23.298;2023-02-18T01:30:23;58342.84;;;2.26;100.00
7836;BME280;3963;42.658;23.298;2023-02-18T01:32:50;58344.94;;;2.28;100.00
7836;BME280;3963;42.658;23.298;2023-02-18T01:35:18;58340.97;;;2.32;99.76
7836;BME280;3963;42.658;23.298;2023-02-18T01:37:47;58317.03;;;2.18;100.00
7836;BME280;3963;42.658;23.298;2023-02-18T01:40:21;58350.56;;;2.43;100.00
7836;BME280;3963;42.658;23.298;2023-02-18T01:42:49;58345.09;;;2.48;99.75
7836;BME280;3963;42.658;23.298;2023-02-18T01:45:45;58377.94;;;2.52;99.18
7836;BME280;3963;42.658;23.298;2023-02-18T01:48:16;58346.66;;;2.49;98.84
7836;BME280;3963;42.658;23.298;2023-02-18T01:50:46;58335.78;;;2.29;99.87
7836;BME280;3963;42.658;23.298;2023-02-18T01:53:19;58279.34;;;2.21;100.00
7836;BME280;3963;42.658;23.298;2023-02-18T01:55:47;58289.41;;;2.16;100.00
7836;BME280;3963;42.658;23.298;2023-02-18T01:58:15;58291.72;;;2.09;100.00
7836;BME280;3963;42.658;23.298;2023-02-18T02:00:42;58302.34;;;2.07;100.00
7836;BME280;3963;42.658;23.298;2023-02-18T02:03:09;58310.72;;;1.98;100.00
7836;BME280;3963;42.658;23.298;2023-02-18T02:05:35;58296.13;;;2.03;100.00
7836;BME280;3963;42.658;23.298;2023-02-18T02:08:03;58325.69;;;2.17;100.00
7836;BME280;3963;42.658;23.298;2023-02-18T02:10:47;58304.31;;;2.04;100.00
7836;BME280;3963;42.658;23.298;2023-02-18T02:13:25;58286.19;;;1.96;100.00
7836;BME280;3963;42.658;23.298;2023-02-18T02:15:59;58296.81;;;2.09;100.00
7836;BME280;3963;42.658;23.298;2023-02-18T02:18:38;58296.28;;;2.23;100.00
7836;BME280;3963;42.658;23.298;2023-02-18T02:24:56;58316.06;;;2.35;99.96
7836;BME280;3963;42.658;23.298;2023-02-18T02:27:40;58349.06;;;2.44;99.74
7836;BME280;3963;42.658;23.298;2023-02-18T02:36:31;58366.25;;;2.39;98.35
7836;BME280;3963;42.658;23.298;2023-02-18T02:39:07;58341.06;;;2.34;98.95
7836;BME280;3963;42.658;23.298;2023-02-18T02:41:43;58342.91;;;2.43;99.51
7836;BME280;3963;42.658;23.298;2023-02-18T02:44:18;58289.94;;;2.17;100.00
7836;BME280;3963;42.658;23.298;2023-02-18T02:46:47;58308.25;;;2.15;100.00
7836;BME280;3963;42.658;23.298;2023-02-18T02:49:29;58305.28;;;2.02;100.00
7836;BME280;3963;42.658;23.298;2023-02-18T02:52:02;58289.34;;;1.99;100.00
7836;BME280;3963;42.658;23.298;2023-02-18T02:54:31;58290.28;;;2.12;100.00
7836;BME280;3963;42.658;23.298;2023-02-18T02:57:06;58312.47;;;2.19;100.00
7836;BME280;3963;42.658;23.298;2023-02-18T02:59:35;58316.94;;;2.31;99.74
7836;BME280;3963;42.658;23.298;2023-02-18T03:02:17;58325.66;;;2.32;99.93
7836;BME280;3963;42.658;23.298;2023-02-18T03:04:58;58331.44;;;2.37;99.56
7836;BME280;3963;42.658;23.298;2023-02-18T03:07:53;58319.66;;;2.36;99.99
7836;BME280;3963;42.658;23.298;2023-02-18T03:10:32;58339.75;;;2.26;100.00
7836;BME280;3963;42.658;23.298;2023-02-18T03:13:07;58313.53;;;2.20;100.00
7836;BME280;3963;42.658;23.298;2023-02-18T03:15:42;58311.34;;;2.01;100.00
7836;BME280;3963;42.658;23.298;2023-02-18T03:18:16;58282.75;;;1.86;100.00
7836;BME280;3963;42.658;23.298;2023-02-18T03:20:50;58139.13;;;1.60;100.00
7836;BME280;3963;42.658;23.298;2023-02-18T03:23:26;58254.16;;;1.85;100.00
7836;BME280;3963;42.658;23.298;2023-02-18T03:25:54;58250.56;;;1.84;100.00
7836;BME280;3963;42.658;23.298;2023-02-18T03:28:23;58289.16;;;2.09;100.00
7836;BME280;3963;42.658;23.298;2023-02-18T03:30:59;58303.78;;;2.18;100.00
7836;BME280;3963;42.658;23.298;2023-02-18T03:33:31;58322.84;;;2.24;100.00
7836;BME280;3963;42.658;23.298;2023-02-18T03:35:59;58296.00;;;2.15;100.00
7836;BME280;3963;42.658;23.298;2023-02-18T03:38:32;58320.03;;;2.16;100.00
7836;BME280;3963;42.658;23.298;2023-02-18T03:41:00;58317.72;;;2.24;100.00
7836;BME280;3963;42.658;23.298;2023-02-18T03:43:28;58287.09;;;2.24;100.00
7836;BME280;3963;42.658;23.298;2023-02-18T03:45:54;58276.88;;;1.92;100.00
7836;BME280;3963;42.658;23.298;2023-02-18T03:48:21;58285.41;;;1.88;100.00
7836;BME280;3963;42.658;23.298;2023-02-18T03:50:48;58253.69;;;1.70;100.00
7836;BME280;3963;42.658;23.298;2023-02-18T03:53:14;58253.75;;;1.87;100.00
7836;BME280;3963;42.658;23.298;2023-02-18T03:55:43;58216.13;;;1.76;100.00
7836;BME280;3963;42.658;23.298;2023-02-18T03:58:09;58257.88;;;1.74;100.00
7836;BME280;3963;42.658;23.298;2023-02-18T04:00:36;58270.22;;;1.76;100.00
7836;BME280;3963;42.658;23.298;2023-02-18T04:03:03;58255.69;;;1.84;100.00
7836;BME280;3963;42.658;23.298;2023-02-18T04:05:30;58243.81;;;1.80;100.00
7836;BME280;3963;42.658;23.298;2023-02-18T04:07:56;58250.50;;;1.82;100.00
7836;BME280;3963;42.658;23.298;2023-02-18T04:10:23;58270.28;;;1.79;100.00
7836;BME280;3963;42.658;23.298;2023-02-18T04:12:51;58248.47;;;1.82;100.00
7836;BME280;3963;42.658;23.298;2023-02-18T04:15:18;58252.69;;;1.86;100.00
7836;BME280;3963;42.658;23.298;2023-02-18T04:17:44;58252.69;;;1.86;100.00
7836;BME280;3963;42.658;23.298;2023-02-18T04:20:12;58244.97;;;1.69;100.00
7836;BME280;3963;42.658;23.298;2023-02-18T04:22:40;58239.72;;;1.64;100.00
7836;BME280;3963;42.658;23.298;2023-02-18T04:25:07;58286.47;;;1.75;100.00
7836;BME280;3963;42.658;23.298;2023-02-18T04:27:34;58202.56;;;1.67;100.00
7836;BME280;3963;42.658;23.298;2023-02-18T04:30:04;58209.78;;;1.70;100.00
7836;BME280;3963;42.658;23.298;2023-02-18T04:32:31;58228.63;;;1.53;100.00
7836;BME280;3963;42.658;23.298;2023-02-18T04:34:58;58212.00;;;1.59;100.00
7836;BME280;3963;42.658;23.298;2023-02-18T04:37:24;58252.19;;;1.71;100.00
7836;BME280;3963;42.658;23.298;2023-02-18T04:39:51;58240.66;;;1.62;100.00
7836;BME280;3963;42.658;23.298;2023-02-18T04:42:18;58225.28;;;1.60;100.00
7836;BME280;3963;42.658;23.298;2023-02-18T04:44:45;58236.63;;;1.63;100.00
7836;BME280;3963;42.658;23.298;2023-02-18T04:47:13;58227.38;;;1.62;100.00
7836;BME280;3963;42.658;23.298;2023-02-18T04:49:39;58232.75;;;1.70;100.00
7836;BME280;3963;42.658;23.298;2023-02-18T04:52:06;58233.72;;;1.68;100.00
7836;BME280;3963;42.658;23.298;2023-02-18T04:54:33;58205.56;;;1.65;100.00
7836;BME280;3963;42.658;23.298;2023-02-18T04:57:00;58198.66;;;1.56;100.00
7836;BME280;3963;42.658;23.298;2023-02-18T04:59:26;58231.63;;;1.51;100.00
7836;BME280;3963;42.658;23.298;2023-02-18T05:01:53;58181.16;;;1.52;100.00
7836;BME280;3963;42.658;23.298;2023-02-18T05:04:21;58228.97;;;1.63;100.00
7836;BME280;3963;42.658;23.298;2023-02-18T05:06:48;58187.69;;;1.48;100.00
7836;BME280;3963;42.658;23.298;2023-02-18T05:09:15;58271.72;;;1.60;100.00
7836;BME280;3963;42.658;23.298;2023-02-18T05:11:42;58238.38;;;1.55;100.00
7836;BME280;3963;42.658;23.298;2023-02-18T05:14:09;58246.03;;;1.55;100.00
7836;BME280;3963;42.658;23.298;2023-02-18T05:16:36;58190.34;;;1.36;100.00
7836;BME280;3963;42.658;23.298;2023-02-18T05:19:03;58190.00;;;1.26;100.00
7836;BME280;3963;42.658;23.298;2023-02-18T05:21:31;58185.50;;;1.29;100.00
7836;BME280;3963;42.658;23.298;2023-02-18T05:23:58;58028.63;;;0.84;100.00
7836;BME280;3963;42.658;23.298;2023-02-18T05:26:25;58206.66;;;1.52;100.00
7836;BME280;3963;42.658;23.298;2023-02-18T05:28:51;58257.13;;;1.66;100.00
7836;BME280;3963;42.658;23.298;2023-02-18T05:31:18;58249.81;;;1.61;100.00
7836;BME280;3963;42.658;23.298;2023-02-18T05:33:45;58243.13;;;1.75;100.00
7836;BME280;3963;42.658;23.298;2023-02-18T05:36:12;58232.03;;;1.79;100.00
7836;BME280;3963;42.658;23.298;2023-02-18T05:38:41;58238.44;;;1.87;100.00
7836;BME280;3963;42.658;23.298;2023-02-18T05:41:08;58260.06;;;1.93;100.00
7836;BME280;3963;42.658;23.298;2023-02-18T05:43:34;58263.88;;;1.85;100.00
7836;BME280;3963;42.658;23.298;2023-02-18T05:46:22;58280.09;;;1.98;100.00
7836;BME280;3963;42.658;23.298;2023-02-18T05:48:48;58282.41;;;2.05;100.00
7836;BME280;3963;42.658;23.298;2023-02-18T05:51:15;58265.41;;;2.01;100.00
7836;BME280;3963;42.658;23.298;2023-02-18T05:53:44;58257.16;;;1.98;100.00
7836;BME280;3963;42.658;23.298;2023-02-18T05:56:11;58253.56;;;1.97;100.00
7836;BME280;3963;42.658;23.298;2023-02-18T05:58:37;58325.22;;;2.19;100.00
7836;BME280;3963;42.658;23.298;2023-02-18T06:01:04;58296.09;;;2.18;100.00
7836;BME280;3963;42.658;23.298;2023-02-18T06:03:31;58337.19;;;2.40;100.00
7836;BME280;3963;42.658;23.298;2023-02-18T06:05:57;58288.50;;;2.35;100.00
7836;BME280;3963;42.658;23.298;2023-02-18T06:08:24;58333.09;;;2.56;100.00
7836;BME280;3963;42.658;23.298;2023-02-18T06:10:53;58324.03;;;2.59;100.00
7836;BME280;3963;42.658;23.298;2023-02-18T06:13:20;58343.81;;;2.71;100.00
7836;BME280;3963;42.658;23.298;2023-02-18T06:15:49;58309.28;;;2.31;100.00
7836;BME280;3963;42.658;23.298;2023-02-18T06:18:16;58308.56;;;2.40;100.00
7836;BME280;3963;42.658;23.298;2023-02-18T06:20:42;58332.84;;;2.48;100.00
7836;BME280;3963;42.658;23.298;2023-02-18T06:23:09;58330.28;;;2.48;100.00
7836;BME280;3963;42.658;23.298;2023-02-18T06:25:36;58346.56;;;2.61;100.00
7836;BME280;3963;42.658;23.298;2023-02-18T06:28:04;58358.09;;;2.70;100.00
7836;BME280;3963;42.658;23.298;2023-02-18T06:30:31;58399.13;;;2.90;100.00
7836;BME280;3963;42.658;23.298;2023-02-18T06:32:58;58364.03;;;2.95;100.00
7836;BME280;3963;42.658;23.298;2023-02-18T06:35:24;58407.28;;;3.05;100.00
7836;BME280;3963;42.658;23.298;2023-02-18T06:37:51;58434.22;;;3.30;98.23
7836;BME280;3963;42.658;23.298;2023-02-18T06:40:18;58449.00;;;3.45;97.58
7836;BME280;3963;42.658;23.298;2023-02-18T06:42:45;58477.56;;;3.57;97.51
7836;BME280;3963;42.658;23.298;2023-02-18T06:45:13;58484.25;;;3.59;98.82
7836;BME280;3963;42.658;23.298;2023-02-18T06:47:40;58478.69;;;3.75;99.10
7836;BME280;3963;42.658;23.298;2023-02-18T06:50:07;58483.81;;;3.75;98.24
7836;BME280;3963;42.658;23.298;2023-02-18T06:52:34;58497.81;;;3.81;97.12
7836;BME280;3963;42.658;23.298;2023-02-18T06:55:03;58560.00;;;4.04;95.65
7836;BME280;3963;42.658;23.298;2023-02-18T06:57:29;58553.81;;;4.18;94.23
7836;BME280;3963;42.658;23.298;2023-02-18T06:59:56;58535.69;;;4.27;93.62
7836;BME280;3963;42.658;23.298;2023-02-18T07:02:24;58583.63;;;4.36;93.24
7836;BME280;3963;42.658;23.298;2023-02-18T07:04:51;58574.69;;;4.45;93.71
7836;BME280;3963;42.658;23.298;2023-02-18T07:07:18;58563.19;;;4.54;92.71
7836;BME280;3963;42.658;23.298;2023-02-18T07:09:45;58604.53;;;4.49;95.98
7836;BME280;3963;42.658;23.298;2023-02-18T07:12:11;58605.41;;;4.60;93.68
7836;BME280;3963;42.658;23.298;2023-02-18T07:14:38;58608.66;;;4.80;91.95
7836;BME280;3963;42.658;23.298;2023-02-18T07:17:05;58656.72;;;4.91;90.99
7836;BME280;3963;42.658;23.298;2023-02-18T07:19:33;58662.25;;;5.04;90.41
7836;BME280;3963;42.658;23.298;2023-02-18T07:21:59;58678.50;;;5.15;88.83
7836;BME280;3963;42.658;23.298;2023-02-18T07:24:26;58685.16;;;5.14;85.93
7836;BME280;3963;42.658;23.298;2023-02-18T07:26:53;58680.31;;;5.07;86.93
7836;BME280;3963;42.658;23.298;2023-02-18T07:29:20;58689.81;;;5.30;85.96
7836;BME280;3963;42.658;23.298;2023-02-18T07:31:46;58706.97;;;5.37;84.59
7836;BME280;3963;42.658;23.298;2023-02-18T07:34:13;58721.63;;;5.46;84.69
7836;BME280;3963;42.658;23.298;2023-02-18T07:36:41;58747.38;;;5.63;83.56
7836;BME280;3963;42.658;23.298;2023-02-18T07:39:08;58704.69;;;5.62;79.92
7836;BME280;3963;42.658;23.298;2023-02-18T07:41:35;58773.13;;;5.51;79.39
7836;BME280;3963;42.658;23.298;2023-02-18T07:44:02;58737.94;;;5.42;79.42
7836;BME280;3963;42.658;23.298;2023-02-18T07:46:29;58731.00;;;5.50;78.05
7836;BME280;3963;42.658;23.298;2023-02-18T07:48:56;58733.47;;;5.62;77.54
7836;BME280;3963;42.658;23.298;2023-02-18T07:51:23;58778.53;;;5.73;76.04
7836;BME280;3963;42.658;23.298;2023-02-18T07:53:51;58739.09;;;5.77;76.71
7836;BME280;3963;42.658;23.298;2023-02-18T07:56:17;58759.25;;;5.96;76.69
7836;BME280;3963;42.658;23.298;2023-02-18T07:58:45;58808.50;;;6.09;75.22
7836;BME280;3963;42.658;23.298;2023-02-18T08:01:13;58819.03;;;6.17;74.17
7836;BME280;3963;42.658;23.298;2023-02-18T08:03:40;58791.25;;;6.32;73.60
7836;BME280;3963;42.658;23.298;2023-02-18T08:06:07;58839.78;;;6.53;71.29
7836;BME280;3963;42.658;23.298;2023-02-18T08:08:40;58838.81;;;6.40;69.67
7836;BME280;3963;42.658;23.298;2023-02-18T08:11:08;58866.19;;;6.59;68.43
7836;BME280;3963;42.658;23.298;2023-02-18T08:13:35;58906.69;;;6.71;68.51
7836;BME280;3963;42.658;23.298;2023-02-18T08:16:02;58905.16;;;6.86;68.15
7836;BME280;3963;42.658;23.298;2023-02-18T08:18:28;58958.16;;;7.02;64.51
7836;BME280;3963;42.658;23.298;2023-02-18T08:20:55;58965.88;;;7.17;63.93
7836;BME280;3963;42.658;23.298;2023-02-18T08:23:22;58979.16;;;7.30;63.38
7836;BME280;3963;42.658;23.298;2023-02-18T08:25:50;59012.50;;;7.56;61.80
7836;BME280;3963;42.658;23.298;2023-02-18T08:28:20;58988.59;;;7.65;60.62
7836;BME280;3963;42.658;23.298;2023-02-18T08:30:49;59013.81;;;7.65;59.99
7836;BME280;3963;42.658;23.298;2023-02-18T08:33:16;59018.84;;;7.77;60.97
7836;BME280;3963;42.658;23.298;2023-02-18T08:35:44;59007.72;;;7.52;60.70
7836;BME280;3963;42.658;23.298;2023-02-18T08:38:11;59041.84;;;7.87;58.55
7836;BME280;3963;42.658;23.298;2023-02-18T08:40:39;59060.78;;;7.97;58.99
7836;BME280;3963;42.658;23.298;2023-02-18T08:43:06;59107.16;;;8.12;58.01
7836;BME280;3963;42.658;23.298;2023-02-18T08:45:35;59086.19;;;8.02;56.77
7836;BME280;3963;42.658;23.298;2023-02-18T08:48:03;59085.16;;;8.32;56.54
7836;BME280;3963;42.658;23.298;2023-02-18T08:50:29;59057.22;;;8.30;56.69
7836;BME280;3963;42.658;23.298;2023-02-18T08:52:56;59122.75;;;8.46;57.02
7836;BME280;3963;42.658;23.298;2023-02-18T08:55:25;59117.31;;;8.53;56.30
7836;BME280;3963;42.658;23.298;2023-02-18T08:57:51;59113.38;;;8.59;56.04
7836;BME280;3963;42.658;23.298;2023-02-18T09:00:19;59128.66;;;8.69;55.53
7836;BME280;3963;42.658;23.298;2023-02-18T09:02:47;59183.94;;;9.02;54.79
7836;BME280;3963;42.658;23.298;2023-02-18T09:05:14;59145.56;;;8.65;55.45
7836;BME280;3963;42.658;23.298;2023-02-18T09:07:40;59159.31;;;8.90;54.98
7836;BME280;3963;42.658;23.298;2023-02-18T09:10:11;59229.50;;;9.06;55.26
7836;BME280;3963;42.658;23.298;2023-02-18T09:12:37;59240.31;;;9.35;53.64
7836;BME280;3963;42.658;23.298;2023-02-18T09:15:04;59206.13;;;9.32;53.53
7836;BME280;3963;42.658;23.298;2023-02-18T09:17:32;59228.16;;;9.58;52.19
7836;BME280;3963;42.658;23.298;2023-02-18T09:20:00;59203.53;;;9.32;52.37
7836;BME280;3963;42.658;23.298;2023-02-18T09:22:28;59264.88;;;9.59;51.70
7836;BME280;3963;42.658;23.298;2023-02-18T09:24:54;59282.75;;;9.68;51.50
7836;BME280;3963;42.658;23.298;2023-02-18T09:27:21;59308.09;;;9.99;50.54
7836;BME280;3963;42.658;23.298;2023-02-18T09:29:48;59454.44;;;10.57;49.06
7836;BME280;3963;42.658;23.298;2023-02-18T09:32:15;59476.50;;;11.29;46.53
7836;BME280;3963;42.658;23.298;2023-02-18T09:34:43;59532.38;;;11.72;44.18
7836;BME280;3963;42.658;23.298;2023-02-18T09:37:11;59562.22;;;11.81;45.12
7836;BME280;3963;42.658;23.298;2023-02-18T09:39:40;59611.06;;;11.97;44.24
7836;BME280;3963;42.658;23.298;2023-02-18T09:42:10;59692.72;;;12.64;42.62
7836;BME280;3963;42.658;23.298;2023-02-18T09:44:42;59799.44;;;13.62;40.56
7836;BME280;3963;42.658;23.298;2023-02-18T09:47:13;59751.47;;;13.27;40.86
7836;BME280;3963;42.658;23.298;2023-02-18T09:49:45;59864.19;;;14.16;39.70
7836;BME280;3963;42.658;23.298;2023-02-18T09:52:18;59960.41;;;14.57;38.49
7836;BME280;3963;42.658;23.298;2023-02-18T09:54:47;60056.97;;;15.38;36.67
7836;BME280;3963;42.658;23.298;2023-02-18T09:57:20;59976.81;;;14.65;36.68
7836;BME280;3963;42.658;23.298;2023-02-18T09:59:52;60006.31;;;15.05;36.38
7836;BME280;3963;42.658;23.298;2023-02-18T10:02:22;59923.88;;;14.40;38.24
7836;BME280;3963;42.658;23.298;2023-02-18T10:04:49;59951.69;;;14.47;38.49
7836;BME280;3963;42.658;23.298;2023-02-18T10:07:23;59987.63;;;14.92;37.00
7836;BME280;3963;42.658;23.298;2023-02-18T10:09:53;60041.66;;;15.33;36.31
7836;BME280;3963;42.658;23.298;2023-02-18T10:12:23;60005.81;;;14.90;37.37
7836;BME280;3963;42.658;23.298;2023-02-18T10:14:51;60150.72;;;15.94;36.11
7836;BME280;3963;42.658;23.298;2023-02-18T10:17:20;60160.97;;;16.35;34.38
7836;BME280;3963;42.658;23.298;2023-02-18T10:19:49;60136.16;;;15.80;34.57
7836;BME280;3963;42.658;23.298;2023-02-18T10:22:17;60169.53;;;16.09;35.28
7836;BME280;3963;42.658;23.298;2023-02-18T10:24:49;60237.91;;;16.53;34.55
7836;BME280;3963;42.658;23.298;2023-02-18T10:27:20;60243.47;;;16.78;33.52
7836;BME280;3963;42.658;23.298;2023-02-18T10:29:49;60334.34;;;17.36;32.83
7836;BME280;3963;42.658;23.298;2023-02-18T10:32:22;60332.25;;;17.37;32.24
7836;BME280;3963;42.658;23.298;2023-02-18T10:34:53;60356.47;;;17.25;32.81
7836;BME280;3963;42.658;23.298;2023-02-18T10:37:40;60288.06;;;16.98;32.74
7836;BME280;3963;42.658;23.298;2023-02-18T10:40:16;60299.72;;;16.87;32.99
7836;BME280;3963;42.658;23.298;2023-02-18T10:42:58;60191.13;;;16.15;33.66
7836;BME280;3963;42.658;23.298;2023-02-18T10:45:35;60217.34;;;16.64;34.18
7836;BME280;3963;42.658;23.298;2023-02-18T10:48:28;60292.56;;;16.92;32.53
7836;BME280;3963;42.658;23.298;2023-02-18T10:50:59;60283.47;;;16.86;32.85
7836;BME280;3963;42.658;23.298;2023-02-18T10:53:32;60219.72;;;16.41;33.10
7836;BME280;3963;42.658;23.298;2023-02-18T10:56:01;60313.06;;;17.26;32.32
7836;BME280;3963;42.658;23.298;2023-02-18T10:58:32;60369.31;;;17.64;31.17
7836;BME280;3963;42.658;23.298;2023-02-18T11:01:02;60360.44;;;17.34;31.81
7836;BME280;3963;42.658;23.298;2023-02-18T11:03:40;60266.19;;;16.70;32.27
7836;BME280;3963;42.658;23.298;2023-02-18T11:06:15;60252.69;;;16.43;32.78
7836;BME280;3963;42.658;23.298;2023-02-18T11:08:46;60186.41;;;16.30;33.17
7836;BME280;3963;42.658;23.298;2023-02-18T11:11:16;60153.47;;;15.82;33.90
7836;BME280;3963;42.658;23.298;2023-02-18T11:13:52;60166.13;;;15.86;34.18
7836;BME280;3963;42.658;23.298;2023-02-18T11:16:21;60200.22;;;16.21;33.40
7836;BME280;3963;42.658;23.298;2023-02-18T11:18:48;60234.88;;;16.41;33.35
7836;BME280;3963;42.658;23.298;2023-02-18T11:21:23;60231.91;;;16.45;33.25
7836;BME280;3963;42.658;23.298;2023-02-18T11:23:52;60236.75;;;16.50;33.79
7836;BME280;3963;42.658;23.298;2023-02-18T11:26:27;60247.19;;;16.50;33.50
7836;BME280;3963;42.658;23.298;2023-02-18T11:28:58;60156.03;;;15.96;33.52
7836;BME280;3963;42.658;23.298;2023-02-18T11:31:35;60159.72;;;15.97;34.02
7836;BME280;3963;42.658;23.298;2023-02-18T11:34:05;60225.94;;;16.40;33.57
7836;BME280;3963;42.658;23.298;2023-02-18T11:36:34;60264.88;;;16.93;32.69
7836;BME280;3963;42.658;23.298;2023-02-18T11:39:04;60366.16;;;17.17;32.71
7836;BME280;3963;42.658;23.298;2023-02-18T11:41:37;60373.03;;;17.50;32.42
7836;BME280;3963;42.658;23.298;2023-02-18T11:44:07;60325.28;;;17.15;31.52
7836;BME280;3963;42.658;23.298;2023-02-18T11:46:55;60347.22;;;17.46;31.13
7836;BME280;3963;42.658;23.298;2023-02-18T11:49:23;60390.00;;;17.56;30.91
7836;BME280;3963;42.658;23.298;2023-02-18T11:51:51;60438.72;;;17.87;31.09
7836;BME280;3963;42.658;23.298;2023-02-18T11:54:24;60479.28;;;18.40;30.58
7836;BME280;3963;42.658;23.298;2023-02-18T11:56:58;60537.22;;;18.62;29.58
7836;BME280;3963;42.658;23.298;2023-02-18T11:59:26;60491.81;;;18.54;29.48
7836;BME280;3963;42.658;23.298;2023-02-18T12:02:02;60485.34;;;18.33;30.14
7836;BME280;3963;42.658;23.298;2023-02-18T12:04:36;60454.22;;;18.11;29.03
7836;BME280;3963;42.658;23.298;2023-02-18T12:07:14;60412.72;;;17.78;30.15
7836;BME280;3963;42.658;23.298;2023-02-18T12:09:46;60474.94;;;18.04;29.58
7836;BME280;3963;42.658;23.298;2023-02-18T12:12:18;60532.25;;;18.55;29.70
7836;BME280;3963;42.658;23.298;2023-02-18T12:14:50;60542.13;;;18.52;30.08
7836;BME280;3963;42.658;23.298;2023-02-18T12:17:44;60479.34;;;18.10;30.27
7836;BME280;3963;42.658;23.298;2023-02-18T12:20:39;60382.63;;;17.54;31.33
7836;BME280;3963;42.658;23.298;2023-02-18T12:23:18;60418.19;;;17.68;30.95
7836;BME280;3963;42.658;23.298;2023-02-18T12:25:56;60409.31;;;17.69;30.61
7836;BME280;3963;42.658;23.298;2023-02-18T12:28:40;60459.41;;;17.94;29.75
7836;BME280;3963;42.658;23.298;2023-02-18T12:31:30;60378.09;;;17.45;29.22
7836;BME280;3963;42.658;23.298;2023-02-18T12:34:19;60332.38;;;17.25;29.29
7836;BME280;3963;42.658;23.298;2023-02-18T12:37:00;60282.75;;;16.95;29.70
7836;BME280;3963;42.658;23.298;2023-02-18T12:39:41;60294.97;;;16.70;30.88
7836;BME280;3963;42.658;23.298;2023-02-18T12:42:22;60290.03;;;16.63;30.47
7836;BME280;3963;42.658;23.298;2023-02-18T12:45:02;60222.25;;;16.39;32.32
7836;BME280;3963;42.658;23.298;2023-02-18T12:47:45;60254.97;;;16.47;32.42
7836;BME280;3963;42.658;23.298;2023-02-18T12:50:41;60228.81;;;16.47;31.60
7836;BME280;3963;42.658;23.298;2023-02-18T12:53:33;60240.09;;;16.41;31.13
7836;BME280;3963;42.658;23.298;2023-02-18T12:59:21;60220.66;;;16.23;32.19
7836;BME280;3963;42.658;23.298;2023-02-18T13:01:58;60201.25;;;16.36;32.71
7836;BME280;3963;42.658;23.298;2023-02-18T13:04:39;60263.19;;;16.28;32.10
7836;BME280;3963;42.658;23.298;2023-02-18T13:07:43;60202.28;;;16.20;32.08
7836;BME280;3963;42.658;23.298;2023-02-18T13:10:26;60223.34;;;16.25;31.87
7836;BME280;3963;42.658;23.298;2023-02-18T13:12:59;60192.84;;;16.19;32.12
7836;BME280;3963;42.658;23.298;2023-02-18T13:15:36;60170.78;;;16.15;31.65
7836;BME280;3963;42.658;23.298;2023-02-18T13:18:10;60211.50;;;16.14;31.85
7836;BME280;3963;42.658;23.298;2023-02-18T13:20:39;60256.69;;;16.37;32.13
7836;BME280;3963;42.658;23.298;2023-02-18T13:23:15;60190.72;;;16.34;31.88
7836;BME280;3963;42.658;23.298;2023-02-18T13:25:43;60193.16;;;16.29;32.08
7836;BME280;3963;42.658;23.298;2023-02-18T13:28:16;60213.09;;;16.30;31.75
7836;BME280;3963;42.658;23.298;2023-02-18T13:30:49;60201.72;;;16.34;31.95
7836;BME280;3963;42.658;23.298;2023-02-18T13:33:25;60195.22;;;16.28;32.07
7836;BME280;3963;42.658;23.298;2023-02-18T13:35:58;60233.72;;;16.23;31.93
7836;BME280;3963;42.658;23.298;2023-02-18T13:38:48;60213.09;;;16.30;31.80
7836;BME280;3963;42.658;23.298;2023-02-18T13:41:17;60198.72;;;16.07;32.18
7836;BME280;3963;42.658;23.298;2023-02-18T13:43:45;60169.25;;;16.01;32.68
7836;BME280;3963;42.658;23.298;2023-02-18T13:46:13;60144.63;;;15.83;32.64